This is the latest recevied weather packets stored in our database for station/object ON5MM-5. If no packets are shown the sender has not sent any weather packets the latest 10 day(s).
| Time | Temp. | Humidity | Pressure | Rain* | Wind** | Luminosity | Snow |
|---|---|---|---|---|---|---|---|
| 1777730703 | 22.22° C | 64% | 1018.5 hPa | 0 mm | 0 m/s | - | - |
| 1777730403 | 21.67° C | 65% | 1018.6 hPa | 0 mm | 0.45 m/s, ° | - | - |
| 1777730102 | 21.67° C | 67% | 1018.6 hPa | 0 mm | 0 m/s | - | - |
| 1777729803 | 21.11° C | 69% | 1018.6 hPa | 0 mm | 0.45 m/s, ° | - | - |
| 1777729502 | 21.11° C | 68% | 1018.8 hPa | 0 mm | 0.89 m/s, ° | - | - |
| 1777729202 | 21.11° C | 72% | 1018.7 hPa | 0 mm | 0.45 m/s, ° | - | - |
| 1777728902 | 20.56° C | 72% | 1018.8 hPa | 0 mm | 0.45 m/s, ° | - | - |
| 1777728602 | 20.56° C | 73% | 1018.8 hPa | 0 mm | 0.45 m/s, ° | - | - |
| 1777728303 | 19.44° C | 74% | 1018.9 hPa | 0.76 mm | 0.45 m/s, ° | - | - |
| 1777728003 | 19.44° C | 74% | 1018.9 hPa | 1.02 mm | 0.45 m/s, ° | - | - |
| 1777727702 | 19.44° C | 72% | 1019 hPa | 2.29 mm | 0 m/s | - | - |
| 1777727403 | 18.89° C | 73% | 1018.9 hPa | 3.05 mm | 0 m/s | - | - |
| 1777727102 | 18.33° C | 73% | 1019.1 hPa | 3.56 mm | 0 m/s | - | - |
| 1777726802 | 17.78° C | 72% | 1019 hPa | 3.56 mm | 0 m/s | - | - |
| 1777726502 | 17.78° C | 73% | 1019.2 hPa | 3.56 mm | 0.45 m/s, ° | - | - |
| 1777726202 | 17.22° C | 73% | 1019.3 hPa | 3.56 mm | 0.45 m/s, ° | - | - |
| 1777725902 | 16.67° C | 74% | 1019.3 hPa | 3.56 mm | 0.45 m/s, ° | - | - |
| 1777725603 | 16.11° C | 74% | 1019.4 hPa | 3.56 mm | 0 m/s | - | - |
| 1777725302 | 16.11° C | 73% | 1019.4 hPa | 3.56 mm | 0 m/s | - | - |
| 1777725003 | 16.67° C | 68% | 1019.6 hPa | 2.79 mm | 3.13 m/s, ° | - | - |
| 1777724702 | 18.33° C | 65% | 1019.6 hPa | 3.3 mm | 4.02 m/s, ° | - | - |
| 1777724403 | 20° C | 62% | 1019.6 hPa | 2.29 mm | 0.89 m/s, ° | - | - |
| 1777724102 | 21.11° C | 58% | 1019.5 hPa | 1.27 mm | 0 m/s | - | - |
| 1777723802 | 21.67° C | 59% | 1019.6 hPa | 0.76 mm | 0 m/s | - | - |
| 1777723503 | 21.67° C | 60% | 1019.6 hPa | 0.76 mm | 1.34 m/s, ° | - | - |
* Rain latest hour (hover to see other rain measurements)
** Current wind speed in m/s (hover to see current wind gust speed)